Stroh, Indiana
Current Conditions -  °F | °C
As of 5:55 PM on Wednesday 22 Oct 2014 (Local Time) from KANQ Reporting Station
NA  
Wind Chill: 44°   Ceiling: NA
Heat Index: 46°   Visibility: NA
Dew Point: 39°   Wind: 5mph
Humidity: 76%   Direction: 60°ENE
Pressure: 30.3"   Gusts: NA
Location:  41.58°N, 85.2°W
Report Text: KANQ 222155Z AUTO 06004KT 08/04 A3030 RMK
Loading
Personal Weather Stations






























Interactive Weather Map
Tropical Storm Tracking
New forecast layout! Learn more

10-Day Weather Forecast

Advertisements
Track Severe Weather on mobile